• Join FlightAware (Why Join?)
  • Login
  • US Flag 
11:52AM EST


 

Airport Tracker/Info


-or-


 

Live Flight TrackerFlight Track Log ✈ DLH417 ✈ 31-Jul-2012 ✈ KIAD - EDDF / FRA

Flight Track Log - Related Links

Times and Time Zones

All times are in EDT time to prevent confusion due to time zone crossing. See the DLH417 flight status page for this flight to view local times or setup timezone preferences in your user account.

Time Position Orientation Groundspeed Altitude Reporting Facility
EDT Latitude Longitude Course Direction KTS MPH feet Rate Location/Type
03:45PM 38.9333 -77.4667 288° West 162 186 1,700  Level Potomac TRACON
03:46PM 38.9500 -77.5333 343° North 251 289 2,500 2,040 Climbing Potomac TRACON
03:47PM 39.0333 -77.5667 30° Northeast 290 334 5,900 2,820 Climbing Potomac TRACON
03:48PM 39.1000 -77.5167 55° Northeast 290 334 8,200 1,380 Climbing Potomac TRACON
03:49PM 39.1430 -77.4380 58° Northeast 303 349 9,000 420 Climbing FlightAware
03:50PM 39.1730 -77.3750 58° Northeast 302 348 9,000  Level FlightAware
03:50PM 39.1930 -77.3340 57° Northeast 300 345 9,000  Level FlightAware
03:51PM 39.2190 -77.2820 240° Southwest 303 349 9,000  Level FlightAware
03:51PM 39.2142 -77.2928 58° Northeast 322 371 9,000 1,800 Level Washington Center
03:53PM 39.2970 -77.1220 72° East 368 423 12,200 1,920 Climbing FlightAware
03:54PM 39.3320 -76.9800 99° East 385 443 14,400 2,040 Climbing FlightAware
03:55PM 39.3170 -76.8560 98° East 393 452 16,300 1,860 Climbing FlightAware
03:55PM 39.3136 -76.8256 100° East 361 415 16,800 2,460 Climbing Washington Center
03:56PM 39.2905 -76.6504 99° East 409 471 19,600 2,580 Climbing FlightAware ADS-B
03:56PM 39.2812 -76.5754 99° East 415 478 20,800 2,160 Climbing FlightAware ADS-B
03:57PM 39.2707 -76.4909 99° East 422 486 22,000 1,680 Climbing FlightAware ADS-B
03:57PM 39.2607 -76.4139 99° East 427 491 22,700 960 Climbing FlightAware ADS-B
03:58PM 39.2506 -76.3341 99° East 428 493 23,000 240 Climbing FlightAware ADS-B
03:59PM 39.2403 -76.2544 100° East 430 495 23,000  Level FlightAware ADS-B
03:59PM 39.2293 -76.1707 99° East 430 495 23,000 240 Level FlightAware ADS-B
04:00PM 39.2195 -76.0945 100° East 433 498 23,300 1,260 Climbing FlightAware ADS-B
04:00PM 39.2094 -76.0170 99° East 438 504 24,300 1,800 Climbing FlightAware ADS-B
04:00PM 39.2023 -75.9577 92° East 444 511 24,900 1,620 Climbing FlightAware ADS-B
04:01PM 39.2019 -75.9415 86° East 445 512 25,100 1,980 Climbing FlightAware ADS-B
04:01PM 39.2032 -75.9188 82° East 447 514 25,400 2,100 Climbing FlightAware ADS-B
04:01PM 39.2050 -75.9032 74° East 448 516 25,600 1,800 Climbing FlightAware ADS-B
04:01PM 39.2087 -75.8860 67° East 451 519 25,800 1,380 Climbing FlightAware ADS-B
04:01PM 39.2174 -75.8593 58° Northeast 455 524 26,000 1,200 Climbing FlightAware ADS-B
04:01PM 39.2281 -75.8370 47° Northeast 459 528 26,200 1,380 Climbing FlightAware ADS-B
04:02PM 39.2745 -75.7732 45° Northeast 466 536 27,000 1,500 Climbing FlightAware ADS-B
04:03PM 39.3528 -75.6724 45° Northeast 474 545 28,300 1,260 Climbing FlightAware ADS-B
04:03PM 39.4010 -75.6098 45° Northeast 484 557 28,800 1,020 Climbing FlightAware ADS-B
04:04PM 39.4521 -75.5435 45° Northeast 491 565 29,400 1,200 Climbing FlightAware ADS-B
04:04PM 39.5102 -75.4678 45° Northeast 495 570 30,200 1,440 Climbing FlightAware ADS-B
04:05PM 39.5695 -75.3903 45° Northeast 494 568 31,200 1,380 Climbing FlightAware ADS-B
04:05PM 39.6208 -75.3230 47° Northeast 497 572 31,800 1,320 Climbing FlightAware ADS-B
04:06PM 39.6688 -75.2568 47° Northeast 495 570 32,600 1,680 Climbing FlightAware ADS-B
04:07PM 39.7284 -75.1727 47° Northeast 488 562 33,800 1,560 Climbing FlightAware ADS-B
04:07PM 39.7962 -75.0769 48° Northeast 485 558 34,800 1,200 Climbing FlightAware ADS-B
04:08PM 39.8489 -75.0019 48° Northeast 488 562 35,400 1,080 Climbing FlightAware ADS-B
04:08PM 39.9018 -74.9265 48° Northeast 488 562 36,100 1,080 Climbing FlightAware ADS-B
04:09PM 39.9550 -74.8506 48° Northeast 487 560 36,700 780 Climbing FlightAware ADS-B
04:10PM 40.0060 -74.7775 48° Northeast 493 567 37,000 240 Climbing FlightAware ADS-B
04:10PM 40.0526 -74.7105 48° Northeast 496 571 37,000  Level FlightAware ADS-B
04:11PM 40.1003 -74.6422 48° Northeast 493 567 37,000  Level FlightAware ADS-B
04:11PM 40.1460 -74.5761 48° Northeast 489 563 37,000  Level FlightAware ADS-B
04:12PM 40.1922 -74.5092 48° Northeast 490 564 37,000  Level FlightAware ADS-B
04:12PM 40.2477 -74.4291 48° Northeast 491 565 37,000  Level FlightAware ADS-B
04:13PM 40.2981 -74.3560 48° Northeast 491 565 37,000  Level FlightAware ADS-B
04:13PM 40.3465 -74.2854 48° Northeast 491 565 37,000  Level FlightAware ADS-B
04:14PM 40.3924 -74.2183 48° Northeast 491 565 37,000  Level FlightAware ADS-B
04:14PM 40.4382 -74.1514 48° Northeast 493 567 37,000  Level FlightAware ADS-B
04:15PM 40.4885 -74.0777 48° Northeast 494 568 37,000  Level FlightAware ADS-B
04:15PM 40.5352 -74.0091 48° Northeast 496 571 37,000  Level FlightAware ADS-B
04:16PM 40.5856 -73.9348 48° Northeast 497 572 37,000  Level FlightAware ADS-B
04:17PM 40.6356 -73.8613 48° Northeast 497 572 37,000  Level FlightAware ADS-B
04:17PM 40.6861 -73.7864 49° Northeast 497 572 37,000  Level FlightAware ADS-B
04:17PM 40.6924 -73.7770 48° Northeast 496 571 37,000  Level FlightAware ADS-B
04:18PM 40.7331 -73.7166 48° Northeast 497 572 37,000  Level FlightAware ADS-B
04:18PM 40.7714 -73.6595 48° Northeast 496 571 37,000  Level FlightAware ADS-B
04:18PM 40.7801 -73.6467 48° Northeast 495 570 37,000  Level FlightAware ADS-B
04:19PM 40.8213 -73.5854 50° Northeast 495 570 37,000  Level FlightAware ADS-B
04:19PM 40.8254 -73.5789 48° Northeast 495 570 37,000  Level FlightAware ADS-B
04:19PM 40.8866 -73.4879 48° Northeast 495 570 37,000  Level FlightAware ADS-B
04:19PM 40.8943 -73.4765 49° Northeast 495 570 37,000  Level FlightAware ADS-B
04:20PM 40.9332 -73.4175 48° Northeast 494 568 37,000  Level FlightAware ADS-B
04:20PM 40.9413 -73.4057 48° Northeast 494 568 37,000  Level FlightAware ADS-B
04:20PM 40.9814 -73.3459 49° Northeast 493 567 37,000  Level FlightAware ADS-B
04:21PM 41.0015 -73.3153 49° Northeast 493 567 37,000  Level FlightAware ADS-B
04:21PM 41.0364 -73.2629 49° Northeast 493 567 37,000  Level FlightAware ADS-B
04:21PM 41.0831 -73.1924 49° Northeast 494 568 37,000  Level FlightAware ADS-B
04:22PM 41.1387 -73.1085 49° Northeast 495 570 37,000  Level FlightAware ADS-B
04:23PM 41.1916 -73.0282 49° Northeast 496 571 37,000  Level FlightAware ADS-B
04:23PM 41.2536 -72.9341 49° Northeast 498 573 37,000  Level FlightAware ADS-B
04:24PM 41.2995 -72.8636 38° Northeast 498 573 37,000  Level FlightAware ADS-B
04:24PM 41.3158 -72.8464 50° Northeast 490 564 37,000  Level Boston Center
04:25PM 41.4039 -72.7058 49° Northeast 490 564 37,000  Level Boston Center
04:26PM 41.4981 -72.5619 50° Northeast 495 570 37,000  Level Boston Center
04:27PM 41.5939 -72.4094 50° Northeast 500 575 37,000  Level Boston Center
04:28PM 41.6853 -72.2650 48° Northeast 500 575 37,000  Level Boston Center
04:29PM 41.7811 -72.1200 52° Northeast 506 582 37,000  Level Boston Center
04:30PM 41.8658 -71.9717 63° Northeast 506 582 37,000  Level Boston Center
04:31PM 41.9317 -71.8011 63° Northeast 506 582 37,000  Level Boston Center
04:32PM 41.9972 -71.6300 62° Northeast 501 577 37,000  Level Boston Center
04:33PM 42.0544 -71.4839 64° Northeast 495 570 37,000  Level Boston Center
04:34PM 42.1175 -71.3094 64° Northeast 501 577 37,000  Level Boston Center
04:35PM 42.1822 -71.1317 64° Northeast 509 586 37,000  Level Boston Center
04:36PM 42.2428 -70.9622 65° Northeast 508 585 37,000  Level Boston Center
04:37PM 42.3131 -70.7611 63° Northeast 515 593 37,000  Level Boston Center
04:38PM 42.3769 -70.5881 65° Northeast 515 593 37,000  Level Boston Center
04:39PM 42.4364 -70.4144 64° Northeast 510 587 37,000  Level Boston Center
04:40PM 42.5000 -70.2378 64° Northeast 510 587 37,000  Level Boston Center
04:41PM 42.5631 -70.0608 64° Northeast 510 587 37,000  Level Boston Center
04:42PM 42.6258 -69.8836 65° Northeast 510 587 37,000  Level Boston Center
04:43PM 42.6864 -69.7058 65° Northeast 510 587 37,000  Level Boston Center
04:44PM 42.7467 -69.5306 212° Southwest 510 587 37,000  Level Boston Center
04:44PM 42.7380 -69.5380 65° Northeast 522 601 37,000  Level FlightAware
04:45PM 42.8022 -69.3469 65° Northeast 510 587 37,000  Level Boston Center
04:46PM 42.8619 -69.1683 65° Northeast 510 587 37,000  Level Boston Center
04:47PM 42.9233 -68.9864 66° East 515 593 37,000 -60 Level Boston Center
04:48PM 42.9822 -68.8069 66° East 515 593 36,900  Descending Boston Center
04:49PM 43.0392 -68.6303 66° East 509 586 37,000  Climbing Boston Center
04:50PM 43.0975 -68.4472 64° Northeast 509 586 37,000  Level Boston Center
04:51PM 43.1619 -68.2694 66° East 509 586 37,000  Level Boston Center
04:52PM 43.2197 -68.0886 66° East 509 586 37,000  Level Boston Center
04:53PM 43.2792 -67.9019 66° East 515 593 37,000  Level Boston Center
04:54PM 43.3367 -67.7206 75° East 515 593 37,000  Level Boston Center
04:55PM 43.3667 -67.5667 65° Northeast 520 598 37,000  Level Moncton Center
04:56PM 43.4333 -67.3667 71° East 530 610 37,000  Level Moncton Center
04:57PM 43.4833 -67.1667 69° East 520 598 37,000  Level Moncton Center
04:58PM 43.5333 -66.9833 63° Northeast 530 610 37,000  Level Moncton Center
04:59PM 43.6000 -66.8000 69° East 530 610 37,000  Level Moncton Center
05:00PM 43.6500 -66.6167 69° East 520 598 37,000 240 Level Moncton Center
05:01PM 43.7000 -66.4333 72° East 520 598 37,500 600 Climbing Moncton Center
05:02PM 43.7500 -66.2167 69° East 530 610 38,200 720 Climbing Moncton Center
05:03PM 43.8000 -66.0333 58° Northeast 530 610 39,000 360 Climbing Moncton Center
05:04PM 43.8833 -65.8500 76° East 520 598 39,000  Level Moncton Center
05:05PM 43.9167 -65.6667 69° East 520 598 39,000  Level Moncton Center
05:06PM 43.9667 -65.4833 69° East 520 598 39,000  Level Moncton Center
05:07PM 44.0167 -65.3000 71° East 520 598 39,000  Level Moncton Center
05:08PM 44.0667 -65.1000 67° East 520 598 39,000  Level Moncton Center
05:09PM 44.1167 -64.9333 72° East 520 598 39,000  Level Moncton Center
05:10PM 44.1667 -64.7167 62° Northeast 520 598 39,000  Level Moncton Center
05:11PM 44.2167 -64.5833 69° East 520 598 39,000  Level Gander Center
05:12PM 44.2667 -64.4000 76° East 520 598 39,000  Level Gander Center
05:13PM 44.3000 -64.2167 63° Northeast 520 598 39,000  Level Gander Center
05:14PM 44.3667 -64.0333 72° East 520 598 39,000  Level Gander Center
05:15PM 44.4167 -63.8167 76° East 520 598 39,000  Level Gander Center
05:16PM 44.4500 -63.6333 69° East 520 598 39,000  Level Gander Center
05:17PM 44.5000 -63.4500 63° Northeast 510 587 39,000  Level Gander Center
05:18PM 44.5667 -63.2667 77° East 510 587 39,000  Level Gander Center
05:19PM 44.6000 -63.0667 67° East 510 587 39,000  Level Gander Center
05:20PM 44.6500 -62.9000 76° East 510 587 39,000  Level Gander Center
05:21PM 44.6833 -62.7167 69° East 510 587 39,000  Level Gander Center
05:22PM 44.7333 -62.5333 71° East 510 587 39,000  Level Gander Center
05:23PM 44.7833 -62.3333 77° East 500 575 39,000  Level Gander Center
05:24PM 44.8167 -62.1333 67° East 500 575 39,000  Level Gander Center
05:25PM 44.8667 -61.9667 69° East 500 575 39,000  Level Gander Center
05:26PM 44.9167 -61.7833 70° East 500 575 39,000  Level Gander Center
05:27PM 44.9667 -61.5833 76° East 500 575 39,000  Level Gander Center
05:28PM 45.0000 -61.4000 69° East 490 564 39,000  Level Gander Center
05:29PM 45.0500 -61.2167 74° East 490 564 39,000  Level Gander Center
05:30PM 45.0833 -61.0500 70° East 490 564 39,000  Level Gander Center
05:31PM 45.1333 -60.8500 75° East 490 564 39,000  Level Gander Center
05:32PM 45.1667 -60.6667 75° East 490 564 39,000  Level Gander Center
05:33PM 45.2000 -60.4833 74° East 490 564 39,000  Level Gander Center
05:34PM 45.2333 -60.3167 70° East 490 564 39,000  Level Gander Center
05:35PM 45.2833 -60.1167 74° East 480 552 39,000  Level Gander Center
05:36PM 45.3167 -59.9500 69° East 480 552 39,000  Level Gander Center
05:37PM 45.3667 -59.7667 74° East 470 541 39,000  Level Gander Center
05:38PM 45.4000 -59.6000 70° East 470 541 39,000  Level Gander Center
05:39PM 45.4500 -59.4000 82° East 470 541 39,000  Level Gander Center
05:40PM 45.4667 -59.2333 69° East 470 541 39,000  Level Gander Center
05:41PM 45.5167 -59.0500 77° East 470 541 39,000  Level Gander Center
05:42PM 45.5500 -58.8500 67° East 480 552 39,000  Level Gander Center
05:43PM 45.6000 -58.6833 83° East 480 552 39,000  Level Gander Center
05:44PM 45.6167 -58.4833 67° East 480 552 39,000  Level Gander Center
05:45PM 45.6667 -58.3167 75° East 480 552 39,000  Level Gander Center
05:46PM 45.7000 -58.1333 74° East 480 552 39,000  Level Gander Center
05:47PM 45.7333 -57.9667 76° East 470 541 39,000  Level Gander Center
05:48PM 45.7667 -57.7667 74° East 470 541 39,000  Level Gander Center
05:49PM 45.8000 -57.6000 70° East 470 541 39,000  Level Gander Center
05:50PM 45.8500 -57.4000 82° East 480 552 39,000  Level Gander Center
05:51PM 45.8667 -57.2333 70° East 480 552 39,000  Level Gander Center
05:52PM 45.9167 -57.0333 82° East 480 552 39,000  Level Gander Center
05:53PM 45.9333 -56.8667 70° East 480 552 39,000  Level Gander Center
05:54PM 45.9833 -56.6667 82° East 480 552 39,000  Level Gander Center
05:55PM 46.0000 -56.5000 70° East 470 541 39,000  Level Gander Center
05:56PM 46.0500 -56.3000 82° East 470 541 39,000  Level Gander Center
05:57PM 46.0667 -56.1167 75° East 480 552 39,000  Level Gander Center
05:58PM 46.1000 -55.9333 74° East 470 541 39,000  Level Gander Center
05:59PM 46.1333 -55.7667 76° East 470 541 39,000  Level Gander Center
06:00PM 46.1667 -55.5667 74° East 460 529 39,000  Level Gander Center
06:01PM 46.2000 -55.4000 75° East 460 529 39,000  Level Gander Center
06:02PM 46.2333 -55.2167 82° East 460 529 39,000  Level Gander Center
06:03PM 46.2500 -55.0500 76° East 460 529 39,000  Level Gander Center
06:04PM 46.2833 -54.8500 74° East 460 529 39,000  Level Gander Center
06:05PM 46.3167 -54.6833 76° East 460 529 39,000  Level Gander Center
06:06PM 46.3500 -54.4833 82° East 460 529 39,000  Level Gander Center
06:07PM 46.3667 -54.3167 70° East 470 541 39,000  Level Gander Center
06:08PM 46.4167 -54.1167 82° East 470 541 39,000  Level Gander Center
06:09PM 46.4333 -53.9333 76° East 470 541 39,000  Level Gander Center
06:10PM 46.4667 -53.7333 82° East 470 541 39,000  Level Gander Center
06:11PM 46.4833 -53.5667 75° East 470 541 39,000  Level Gander Center
06:12PM 46.5167 -53.3833 76° East 480 552 39,000  Level Gander Center
06:13PM 46.5500 -53.1833 74° East 480 552 39,000  Level Gander Center
06:14PM 46.5833 -53.0167 83° East 480 552 39,000  Level Gander Center
06:15PM 46.6000 -52.8167 76° East 480 552 39,000  Level Gander Center
06:16PM 46.6333 -52.6167 83° East 480 552 39,000  Level Gander Center
06:17PM 46.6500 -52.4167 75° East 480 552 39,000  Level Gander Center
06:18PM 46.6833 -52.2333 74° East 490 564 39,000  Level Gander Center
06:19PM 46.7167 -52.0667 78° East 490 564 39,000  Level Gander Center
06:20PM 46.7500 -51.8333 82° East 490 564 39,000  Level Gander Center
06:21PM 46.7667 -51.6667 76° East 490 564 39,000  Level Gander Center
06:22PM 46.8000 -51.4667 83° East 490 564 39,000  Level Gander Center
06:23PM 46.8167 -51.2667 83° East 500 575 39,000  Level Gander Center
06:24PM 46.8333 -51.0667 77° East 500 575 39,000  Level Gander Center
06:25PM 46.8667 -50.8500 76° East 490 564 39,000  Level Gander Center
06:26PM 46.9000 -50.6500 82° East 500 575 39,000  Level Gander Center
06:27PM 46.9167 -50.4833 76° East 500 575 39,000  Level Gander Center
06:28PM 46.9500 -50.2833 83° East 490 564 39,000  Level Gander Center
06:29PM 46.9667 -50.0833 77° East 490 564 39,000  Level Gander Center
06:30PM 47.0000 -49.8667 83° East 490 564 39,000  Level Gander Center
06:31PM 47.0167 -49.6667 75° East 490 564 39,000  Level Gander Center
06:32PM 47.0500 -49.4833 76° East 490 564 39,000  Level Gander Center
06:33PM 47.0833 -49.2833 75° East 490 564 39,000  Level Gander Center
06:34PM 47.1167 -49.1000 83° East 500 575 39,000  Level Gander Center
06:35PM 47.1333 -48.8833 75° East 500 575 39,000  Level Gander Center
06:36PM 47.1667 -48.7000 82° East 490 564 39,000  Level Gander Center
06:37PM 47.1833 -48.5167 78° East 500 575 39,000  Level Gander Center
06:38PM 47.2167 -48.2833 82° East 500 575 39,000  Level Gander Center
06:39PM 47.2333 -48.1000 83° East 500 575 39,000  Level Gander Center
06:40PM 47.2500 -47.9000 76° East 500 575 39,000  Level Gander Center
06:41PM 47.2833 -47.7000 83° East 500 575 39,000  Level Gander Center
06:42PM 47.3000 -47.4833 76° East 510 587 39,000  Level Gander Center
06:43PM 47.3333 -47.2833 83° East 510 587 39,000  Level Gander Center
06:44PM 47.3500 -47.0833 75° East 500 575 39,000  Level Gander Center
06:45PM 47.3833 -46.9000 83° East 510 587 39,000  Level Gander Center
06:46PM 47.4000 -46.6833 76° East 510 587 39,000  Level Gander Center
06:47PM 47.4333 -46.4833 67° East 510 587 39,000  Level Gander Center
06:55PM 47.7626 -45.0552 68° East  Level FlightAware Approximate
06:56PM 47.8045 -44.8663 68° East  Level FlightAware Approximate
06:57PM 47.8461 -44.6772 68° East  Level FlightAware Approximate
06:58PM 47.8874 -44.4878 69° East  Level FlightAware Approximate
06:59PM 47.9284 -44.2980 69° East  Level FlightAware Approximate
07:00PM 47.9691 -44.1080 69° East  Level FlightAware Approximate
07:01PM 48.0094 -43.9176 69° East  Level FlightAware Approximate
07:02PM 48.0494 -43.7270 69° East  Level FlightAware Approximate
07:03PM 48.0892 -43.5361 69° East  Level FlightAware Approximate
07:04PM 48.1286 -43.3449 69° East  Level FlightAware Approximate
07:05PM 48.1676 -43.1534 69° East  Level FlightAware Approximate
07:06PM 48.2064 -42.9616 69° East  Level FlightAware Approximate
07:07PM 48.2449 -42.7695 70° East  Level FlightAware Approximate
07:08PM 48.2830 -42.5771 70° East  Level FlightAware Approximate
07:09PM 48.3208 -42.3844 70° East  Level FlightAware Approximate
07:10PM 48.3583 -42.1915 70° East  Level FlightAware Approximate
07:11PM 48.3954 -41.9982 70° East  Level FlightAware Approximate
07:12PM 48.4323 -41.8047 70° East  Level FlightAware Approximate
07:13PM 48.4688 -41.6109 70° East  Level FlightAware Approximate
07:14PM 48.5050 -41.4168 70° East  Level FlightAware Approximate
07:15PM 48.5408 -41.2225 71° East  Level FlightAware Approximate
07:16PM 48.5764 -41.0279 71° East  Level FlightAware Approximate
07:17PM 48.6115 -40.8330 71° East  Level FlightAware Approximate
07:18PM 48.6464 -40.6378 71° East  Level FlightAware Approximate
07:19PM 48.6810 -40.4423 71° East  Level FlightAware Approximate
07:20PM 48.7152 -40.2466 71° East  Level FlightAware Approximate
07:21PM 48.7491 -40.0507 71° East  Level FlightAware Approximate
07:22PM 48.7826 -39.8544 71° East  Level FlightAware Approximate
07:23PM 48.8158 -39.6579 72° East  Level FlightAware Approximate
07:24PM 48.8553 -39.4640 72° East  Level FlightAware Approximate
07:25PM 48.8944 -39.2697 72° East  Level FlightAware Approximate
07:26PM 48.9332 -39.0751 72° East  Level FlightAware Approximate
07:27PM 48.9716 -38.8803 72° East  Level FlightAware Approximate
07:28PM 49.0098 -38.6851 72° East  Level FlightAware Approximate
07:29PM 49.0476 -38.4896 72° East  Level FlightAware Approximate
07:30PM 49.0851 -38.2939 72° East  Level FlightAware Approximate
07:31PM 49.1222 -38.0978 73° East  Level FlightAware Approximate
07:32PM 49.1590 -37.9015 73° East  Level FlightAware Approximate
07:33PM 49.1955 -37.7048 73° East  Level FlightAware Approximate
07:34PM 49.2317 -37.5079 73° East  Level FlightAware Approximate
07:35PM 49.2675 -37.3107 73° East  Level FlightAware Approximate
07:36PM 49.3030 -37.1132 73° East  Level FlightAware Approximate
07:37PM 49.3381 -36.9154 73° East  Level FlightAware Approximate
07:38PM 49.3729 -36.7174 74° East  Level FlightAware Approximate
07:39PM 49.4074 -36.5190 74° East  Level FlightAware Approximate
07:40PM 49.4415 -36.3204 74° East  Level FlightAware Approximate
07:41PM 49.4753 -36.1215 74° East  Level FlightAware Approximate
07:42PM 49.5088 -35.9223 74° East  Level FlightAware Approximate
07:43PM 49.5419 -35.7229 74° East  Level FlightAware Approximate
07:44PM 49.5746 -35.5232 74° East  Level FlightAware Approximate
07:45PM 49.6070 -35.3232 75° East  Level FlightAware Approximate
07:46PM 49.6391 -35.1230 75° East  Level FlightAware Approximate
07:47PM 49.6708 -34.9225 75° East  Level FlightAware Approximate
07:48PM 49.7022 -34.7217 75° East  Level FlightAware Approximate
07:49PM 49.7332 -34.5207 75° East  Level FlightAware Approximate
07:50PM 49.7639 -34.3194 75° East  Level FlightAware Approximate
07:51PM 49.7942 -34.1179 75° East  Level FlightAware Approximate
07:52PM 49.8242 -33.9161 76° East  Level FlightAware Approximate
07:53PM 49.8538 -33.7141 76° East  Level FlightAware Approximate
07:54PM 49.8831 -33.5118 76° East  Level FlightAware Approximate
07:55PM 49.9120 -33.3093 76° East  Level FlightAware Approximate
07:56PM 49.9406 -33.1065 76° East  Level FlightAware Approximate
07:57PM 49.9688 -32.9035 76° East  Level FlightAware Approximate
07:58PM 49.9967 -32.7003 76° East  Level FlightAware Approximate
07:59PM 50.0242 -32.4968 77° East  Level FlightAware Approximate
08:00PM 50.0514 -32.2931 77° East  Level FlightAware Approximate
08:01PM 50.0782 -32.0892 77° East  Level FlightAware Approximate
08:02PM 50.1046 -31.8850 77° East  Level FlightAware Approximate
08:03PM 50.1307 -31.6806 77° East  Level FlightAware Approximate
08:04PM 50.1564 -31.4760 77° East  Level FlightAware Approximate
08:05PM 50.1818 -31.2712 77° East  Level FlightAware Approximate
08:06PM 50.2068 -31.0662 78° East  Level FlightAware Approximate
08:07PM 50.2314 -30.8609 78° East  Level FlightAware Approximate
08:08PM 50.2557 -30.6554 78° East  Level FlightAware Approximate
08:09PM 50.2796 -30.4498 78° East  Level FlightAware Approximate
08:10PM 50.3032 -30.2439 78° East  Level FlightAware Approximate
08:11PM 50.3301 -30.0389 78° East  Level FlightAware Approximate
08:12PM 50.3566 -29.8337 78° East  Level FlightAware Approximate
08:13PM 50.3828 -29.6283 79° East  Level FlightAware Approximate
08:14PM 50.4086 -29.4226 79° East  Level FlightAware Approximate
08:15PM 50.4341 -29.2167 79° East  Level FlightAware Approximate
08:16PM 50.4592 -29.0106 79° East  Level FlightAware Approximate
08:17PM 50.4839 -28.8043 79° East  Level FlightAware Approximate
08:18PM 50.5083 -28.5978 79° East  Level FlightAware Approximate
08:19PM 50.5322 -28.3910 79° East  Level FlightAware Approximate
08:20PM 50.5559 -28.1840 80° East  Level FlightAware Approximate
08:21PM 50.5792 -27.9769 80° East  Level FlightAware Approximate
08:22PM 50.6021 -27.7695 80° East  Level FlightAware Approximate
08:23PM 50.6246 -27.5620 80° East  Level FlightAware Approximate
08:24PM 50.6467 -27.3542 80° East  Level FlightAware Approximate
08:25PM 50.6685 -27.1462 80° East  Level FlightAware Approximate
08:26PM 50.6899 -26.9381 81° East  Level FlightAware Approximate
08:27PM 50.7110 -26.7297 81° East  Level FlightAware Approximate
08:28PM 50.7317 -26.5212 81° East  Level FlightAware Approximate
08:29PM 50.7520 -26.3125 81° East  Level FlightAware Approximate
08:30PM 50.7719 -26.1036 81° East  Level FlightAware Approximate
08:31PM 50.7915 -25.8946 81° East  Level FlightAware Approximate
08:32PM 50.8106 -25.6854 82° East  Level FlightAware Approximate
08:33PM 50.8294 -25.4760 82° East  Level FlightAware Approximate
08:34PM 50.8479 -25.2664 82° East  Level FlightAware Approximate
08:35PM 50.8659 -25.0567 82° East  Level FlightAware Approximate
08:36PM 50.8836 -24.8468 82° East  Level FlightAware Approximate
08:37PM 50.9009 -24.6367 82° East  Level FlightAware Approximate
08:38PM 50.9179 -24.4265 82° East  Level FlightAware Approximate
08:39PM 50.9344 -24.2161 83° East  Level FlightAware Approximate
08:40PM 50.9506 -24.0056 83° East  Level FlightAware Approximate
08:41PM 50.9664 -23.7950 83° East  Level FlightAware Approximate
08:42PM 50.9818 -23.5842 83° East  Level FlightAware Approximate
08:43PM 50.9968 -23.3732 83° East  Level FlightAware Approximate
08:44PM 51.0115 -23.1622 83° East  Level FlightAware Approximate
08:45PM 51.0257 -22.9510 84° East  Level FlightAware Approximate
08:46PM 51.0396 -22.7396 84° East  Level FlightAware Approximate
08:47PM 51.0532 -22.5282 84° East  Level FlightAware Approximate
08:48PM 51.0663 -22.3166 84° East  Level FlightAware Approximate
08:49PM 51.0790 -22.1049 84° East  Level FlightAware Approximate
08:50PM 51.0914 -21.8931 84° East  Level FlightAware Approximate
08:51PM 51.1034 -21.6812 85° East  Level FlightAware Approximate
08:52PM 51.1150 -21.4692 85° East  Level FlightAware Approximate
08:53PM 51.1262 -21.2570 85° East  Level FlightAware Approximate
08:54PM 51.1370 -21.0448 85° East  Level FlightAware Approximate
08:55PM 51.1475 -20.8325 85° East  Level FlightAware Approximate
08:56PM 51.1575 -20.6201 85° East  Level FlightAware Approximate
08:57PM 51.1672 -20.4075 85° East  Level FlightAware Approximate
08:58PM 51.1765 -20.1949 86° East  Level FlightAware Approximate
08:59PM 51.1903 -19.9829 86° East  Level FlightAware Approximate
09:00PM 51.2036 -19.7707 86° East  Level FlightAware Approximate
09:01PM 51.2166 -19.5584 86° East  Level FlightAware Approximate
09:02PM 51.2292 -19.3460 86° East  Level FlightAware Approximate
09:03PM 51.2414 -19.1335 87° East  Level FlightAware Approximate
09:04PM 51.2533 -18.9209 87° East  Level FlightAware Approximate
09:05PM 51.2647 -18.7081 87° East  Level FlightAware Approximate
09:06PM 51.2758 -18.4953 87° East  Level FlightAware Approximate
09:07PM 51.2864 -18.2824 88° East  Level FlightAware Approximate
09:08PM 51.2967 -18.0693 88° East  Level FlightAware Approximate
09:09PM 51.3066 -17.8562 88° East  Level FlightAware Approximate
09:10PM 51.3161 -17.6430 88° East  Level FlightAware Approximate
09:11PM 51.3253 -17.4296 88° East  Level FlightAware Approximate
09:12PM 51.3340 -17.2162 89° East  Level FlightAware Approximate
09:13PM 51.3424 -17.0028 89° East  Level FlightAware Approximate
09:14PM 51.3503 -16.7892 89° East  Level FlightAware Approximate
09:15PM 51.3579 -16.5756 89° East  Level FlightAware Approximate
09:16PM 51.3651 -16.3619 90° East  Level FlightAware Approximate
09:17PM 51.3719 -16.1481 90° East  Level FlightAware Approximate
09:18PM 51.3783 -15.9343 90° East  Level FlightAware Approximate
09:19PM 51.3843 -15.7205 91° East  Level FlightAware Approximate
09:20PM 51.3900 -15.5065 91° East  Level FlightAware Approximate
09:21PM 51.3952 -15.2925 91° East  Level FlightAware Approximate
09:22PM 51.4001 -15.0785 92° East  Level FlightAware Approximate
09:23PM 51.4087 -14.8648 92° East  Level FlightAware Approximate
09:24PM 51.4170 -14.6509 92° East  Level FlightAware Approximate
09:25PM 51.4249 -14.4370 93° East  Level FlightAware Approximate
09:26PM 51.4325 -14.2231 94° East  Level FlightAware Approximate
09:27PM 51.4396 -14.0090 94° East  Level FlightAware Approximate
09:28PM 51.4463 -13.7949 95° East  Level FlightAware Approximate
09:29PM 51.4527 -13.5807 96° East  Level FlightAware Approximate
09:30PM 51.4586 -13.3665 97° East  Level FlightAware Approximate
09:31PM 51.4642 -13.1522 98° East  Level FlightAware Approximate
09:32PM 51.2570 -10.9380 86° East 504 580 39,000  Level FlightAware
09:41PM 51.3240 -9.1480 87° East 502 578 39,000  Level FlightAware
09:42PM 51.3350 -8.7850 88° East 505 581 39,000  Level FlightAware
09:44PM 51.3450 -8.3940 88° East 506 582 39,000  Level FlightAware
09:44PM 51.3480 -8.2450 88° East 507 583 39,000  Level FlightAware
09:47PM 51.3610 -7.6010 89° East 507 583 39,000  Level FlightAware
09:48PM 51.3640 -7.3950 88° East 506 582 39,000  Level FlightAware
09:50PM 51.3690 -7.0630 89° East 504 580 39,000  Level FlightAware
09:51PM 51.3720 -6.8590 89° East 504 580 39,000  Level FlightAware
09:51PM 51.3730 -6.6910 89° East 505 581 39,000  Level FlightAware
09:52PM 51.3750 -6.5420 89° East 505 581 39,000  Level FlightAware
09:53PM 51.3770 -6.2820 90° East 507 583 39,000  Level FlightAware
09:54PM 51.3780 -6.0180 89° East 507 583 39,000  Level FlightAware
09:55PM 51.3790 -5.8710 270° West 507 583 39,000  Level FlightAware
09:56PM 51.3770 -6.3240 89° East 507 583 39,000  Level FlightAware
09:56PM 51.3790 -5.6200 90° East 509 586 39,000  Level FlightAware
09:57PM 51.3794 -5.3987 90° East 511 588 39,000  Level FlightAware ADS-B
09:58PM 51.3792 -5.2819 90° East 513 590 39,000  Level FlightAware ADS-B
09:58PM 51.3790 -5.1675 90° East 514 592 39,000  Level FlightAware ADS-B
09:59PM 51.3786 -5.0507 90° East 514 592 39,000  Level FlightAware ADS-B
09:59PM 51.3780 -4.9314 90° East 513 590 39,000  Level FlightAware ADS-B
10:00PM 51.3774 -4.8177 90° East 512 589 39,000  Level FlightAware ADS-B
10:00PM 51.3770 -4.7110 91° East 512 589 39,000  Level FlightAware
10:00PM 51.3764 -4.6693 91° East 512 589 39,000  Level FlightAware ADS-B
10:01PM 51.3755 -4.5411 247° West 511 588 39,000  Level FlightAware ADS-B
10:01PM 51.3750 -4.5430 91° East 511 588 39,000  Level FlightAware
10:02PM 51.3741 -4.3963 91° East 509 586 39,000  Level FlightAware ADS-B
10:02PM 51.3730 -4.2829 91° East 509 586 39,000  Level FlightAware ADS-B
10:03PM 51.3717 -4.1677 91° East 510 587 39,000  Level FlightAware ADS-B
10:03PM 51.3704 -4.0530 91° East 511 588 39,000  Level FlightAware ADS-B
10:04PM 51.3689 -3.9379 91° East 512 589 39,000  Level FlightAware ADS-B
10:04PM 51.3673 -3.8236 91° East 512 589 39,000  Level FlightAware ADS-B
10:05PM 51.3656 -3.7093 91° East 512 589 39,000  Level FlightAware ADS-B
10:05PM 51.3638 -3.5951 91° East 510 587 39,000  Level FlightAware ADS-B
10:06PM 51.3619 -3.4802 275° West 509 586 39,000  Level FlightAware ADS-B
10:06PM 51.3620 -3.4820 92° East 509 586 39,000  Level FlightAware
10:06PM 51.3598 -3.3659 92° East 509 586 39,000  Level FlightAware ADS-B
10:07PM 51.3577 -3.2504 92° East 509 586 39,000  Level FlightAware ADS-B
10:07PM 51.3555 -3.1356 92° East 510 587 39,000  Level FlightAware ADS-B
10:08PM 51.3531 -3.0203 92° East 509 586 39,000  Level FlightAware ADS-B
10:08PM 51.3505 -2.9044 92° East 509 586 39,000  Level FlightAware ADS-B
10:09PM 51.3479 -2.7871 92° East 511 588 39,000  Level FlightAware ADS-B
10:09PM 51.3451 -2.6730 92° East 511 588 39,000  Level FlightAware ADS-B
10:10PM 51.3423 -2.5583 92° East 511 588 39,000  Level FlightAware ADS-B
10:10PM 51.3393 -2.4448 92° East 513 590 39,000  Level FlightAware ADS-B
10:11PM 51.3362 -2.3248 92° East 515 593 39,000  Level FlightAware ADS-B
10:11PM 51.3330 -2.2092 93° East 513 590 39,000  Level FlightAware ADS-B
10:12PM 51.3298 -2.0961 93° East 510 587 39,000  Level FlightAware ADS-B
10:12PM 51.3264 -1.9822 93° East 509 586 39,000  Level FlightAware ADS-B
10:13PM 51.3230 -1.8702 93° East 510 587 39,000  Level FlightAware ADS-B
10:13PM 51.3193 -1.7534 93° East 511 588 39,000  Level FlightAware ADS-B
10:14PM 51.3155 -1.6375 93° East 512 589 39,000  Level FlightAware ADS-B
10:14PM 51.3117 -1.5238 93° East 513 590 39,000  Level FlightAware ADS-B
10:15PM 51.3078 -1.4094 93° East 514 592 39,000  Level FlightAware ADS-B
10:15PM 51.3037 -1.2939 93° East 513 590 39,000  Level FlightAware ADS-B
10:16PM 51.2995 -1.1798 93° East 513 590 39,000  Level FlightAware ADS-B
10:16PM 51.2953 -1.0667 93° East 513 590 39,000  Level FlightAware ADS-B
10:17PM 51.2909 -0.9515 94° East 513 590 39,000  Level FlightAware ADS-B
10:17PM 51.2864 -0.8367 94° East 512 589 39,000  Level FlightAware ADS-B
10:18PM 51.2818 -0.7241 94° East 511 588 39,000  Level FlightAware ADS-B
10:18PM 51.2770 -0.6060 94° East 510 587 39,000  Level FlightAware ADS-B
10:19PM 51.2722 -0.4922 94° East 509 586 39,000  Level FlightAware ADS-B
10:19PM 51.2672 -0.3796 94° East 509 586 39,000  Level FlightAware ADS-B
10:20PM 51.2622 -0.2667 94° East 509 586 39,000  Level FlightAware ADS-B
10:20PM 51.2571 -0.1538 94° East 509 586 39,000  Level FlightAware ADS-B
10:21PM 51.2520 -0.0407 94° East 508 585 39,000  Level FlightAware ADS-B
10:21PM 51.2466 0.0728 94° East 508 585 39,000  Level FlightAware ADS-B
10:22PM 51.2410 0.1893 95° East 508 585 39,000  Level FlightAware ADS-B
10:22PM 51.2353 0.3037 94° East 507 583 39,000  Level FlightAware ADS-B
10:23PM 51.2297 0.4164 95° East 506 582 39,000  Level FlightAware ADS-B
10:23PM 51.2238 0.5309 95° East 506 582 39,000  Level FlightAware ADS-B
10:24PM 51.2179 0.6431 95° East 507 583 39,000  Level FlightAware ADS-B
10:24PM 51.2119 0.7561 95° East 508 585 39,000  Level FlightAware ADS-B
10:25PM 51.2088 0.8102 97° East 508 585 39,000  Level FlightAware ADS-B
10:25PM 51.2052 0.8546 101° East 506 582 39,000  Level FlightAware ADS-B
10:25PM 51.1915 0.9664 101° East 506 582 39,000  Level FlightAware ADS-B
10:26PM 51.1776 1.0768 101° East 506 582 39,000  Level FlightAware ADS-B
10:26PM 51.1634 1.1882 102° East 505 581 39,000  Level FlightAware ADS-B
10:27PM 51.1489 1.3004 102° East 505 581 39,000  Level FlightAware ADS-B
10:27PM 51.1338 1.4166 102° East 506 582 39,000  Level FlightAware ADS-B
10:28PM 51.1191 1.5293 102° East 507 583 39,000  Level FlightAware ADS-B
10:29PM 51.0990 1.6800 102° East 506 582 39,000  Level FlightAware
10:29PM 51.0913 1.7397 102° East 507 583 39,000  Level FlightAware ADS-B
10:29PM 51.0753 1.8584 102° East 509 586 39,000  Level FlightAware ADS-B
10:30PM 51.0602 1.9704 102° East 509 586 39,000  Level FlightAware ADS-B
10:30PM 51.0449 2.0834 102° East 509 586 39,000  Level FlightAware ADS-B
10:31PM 51.0298 2.1933 102° East 509 586 39,000  Level FlightAware ADS-B
10:31PM 51.0146 2.3035 102° East 510 587 39,000  Level FlightAware ADS-B
10:32PM 50.9994 2.4132 103° East 510 587 39,000  Level FlightAware ADS-B
10:33PM 50.9832 2.5282 103° East 510 587 39,000  Level FlightAware ADS-B
10:33PM 50.9677 2.6385 103° East 510 587 39,000  Level FlightAware ADS-B
10:34PM 50.9521 2.7478 103° East 510 587 39,000  Level FlightAware ADS-B
10:34PM 50.9359 2.8614 103° East 510 587 39,000  Level FlightAware ADS-B
10:35PM 50.9189 2.9784 103° East 509 586 39,000  Level FlightAware ADS-B
10:35PM 50.9030 3.0890 103° East 508 585 39,000  Level FlightAware
10:36PM 50.8920 3.1660 103° East 507 583 39,000  Level FlightAware
10:37PM 50.8560 3.4040 103° East 506 582 39,000  Level FlightAware
10:38PM 50.8120 3.7000 104° East 504 580 39,000  Level FlightAware
10:39PM 50.7910 3.8360 103° East 505 581 39,000  Level FlightAware
10:40PM 50.7510 4.0990 104° East 505 581 39,000  Level FlightAware
10:40PM 50.7360 4.1910 104° East 506 582 39,000  Level FlightAware
10:41PM 50.7070 4.3770 104° East 506 582 39,000  Level FlightAware
10:42PM 50.6860 4.5100 104° East 505 581 39,000 -300 Level FlightAware
10:44PM 50.6330 4.8410 104° East 500 575 38,200 -900 Descending FlightAware
10:45PM 50.5710 5.2170 360° North 482 555 36,100 -1,860 Descending FlightAware
10:46PM 50.5710 5.2170 105° East 473 544 35,000 -1,800 Descending FlightAware
10:47PM 50.5230 5.5020 105° East 465 535 33,600 -1,860 Descending FlightAware
10:48PM 50.4870 5.7140 105° East 460 529 31,700 -1,740 Descending FlightAware
10:49PM 50.4480 5.9430 106° East 449 517 29,600 -1,740 Descending FlightAware
10:50PM 50.4250 6.0710 105° East 446 513 28,400 -1,800 Descending FlightAware
10:51PM 50.3960 6.2350 105° East 446 513 26,700 -1,920 Descending FlightAware
10:51PM 50.3720 6.3760 81° East 438 504 25,300 -2,100 Descending FlightAware
10:53PM 50.3960 6.6270 107° East 430 495 22,600 -1,980 Descending FlightAware
10:53PM 50.3860 6.6770 112° Southeast 421 484 22,100 -2,040 Descending FlightAware
10:54PM 50.3550 6.7980 113° Southeast 415 478 20,600 -1,980 Descending FlightAware
10:54PM 50.3240 6.9110 113° Southeast 411 473 19,300 -1,860 Descending FlightAware
10:55PM 50.2950 7.0180 113° Southeast 406 467 18,000 -2,040 Descending FlightAware
10:56PM 50.2550 7.1640 113° Southeast 403 464 16,200 -2,160 Descending FlightAware
10:57PM 50.2210 7.2880 114° Southeast 396 456 14,600 -1,320 Descending FlightAware
10:57PM 50.2130 7.3160 113° Southeast 391 450 14,300 -2,040 Descending FlightAware
10:58PM 50.1640 7.4950 114° Southeast 385 443 11,900 -2,340 Descending FlightAware
10:59PM 50.1290 7.6190 112° Southeast 359 413 11,000 -720 Descending FlightAware
10:59PM 50.1110 7.6890 107° East 335 386 11,000  Level FlightAware
11:00PM 50.0900 7.7960 103° East 296 341 11,000  Level FlightAware
11:01PM 50.0810 7.8580 73° East 294 338 11,000  Level FlightAware
11:01PM 50.0970 7.9380 68° East 293 337 11,000  Level FlightAware
11:02PM 50.1170 8.0160 70° East 293 337 11,000 -600 Level FlightAware
11:03PM 50.1450 8.1340 68° East 286 329 10,000 -720 Descending FlightAware
11:03PM 50.1580 8.1850 70° East 284 327 10,000  Level FlightAware
11:04PM 50.1680 8.2270 85° East 284 327 10,000 -60 Level FlightAware
11:05PM 50.1780 8.3990 143° Southeast 294 338 9,900 -120 Descending FlightAware
11:05PM 50.1670 8.4120 158° South 290 334 9,800 -900 Descending FlightAware
11:06PM 50.1310 8.4350 166° South 284 327 9,300 -1,080 Descending FlightAware
11:06PM 50.1180 8.4400 194° South 275 316 9,100 -600 Descending FlightAware
11:06PM 50.0940 8.4310 223° Southwest 256 295 9,000 -240 Descending FlightAware
11:07PM 50.0850 8.4180 245° Southwest 250 288 9,000  Level FlightAware
11:07PM 50.0750 8.3850 248° West 248 285 9,000  Level FlightAware
11:08PM 50.0590 8.3220 251° West 249 287 9,000  Level FlightAware
11:08PM 50.0470 8.2680 259° West 248 285 9,000  Level FlightAware
11:09PM 50.0330 8.1530 260° West 248 285 9,000 -180 Level FlightAware
11:10PM 50.0240 8.0770 238° Southwest 249 287 8,700 -900 Descending FlightAware
11:10PM 50.0070 8.0340 216° Southwest 258 297 8,000 -1,200 Descending FlightAware
11:11PM 49.9670 7.9880 170° South 263 303 7,300 -1,080 Descending FlightAware
11:12PM 49.9320 7.9980 127° Southeast 263 303 6,800 -960 Descending FlightAware
11:12PM 49.9180 8.0270 95° East 265 305 6,500 -1,200 Descending FlightAware
11:12PM 49.9160 8.0660 80° East 268 308 6,000 -1,620 Descending FlightAware
11:12PM 49.9180 8.0840 68° East 264 304 5,700 -1,800 Descending FlightAware
11:13PM 49.9310 8.1350 68° East 248 285 4,800 -1,440 Descending FlightAware
11:13PM 49.9430 8.1820 69° East 225 259 4,300 -900 Descending FlightAware
11:14PM 49.9540 8.2270 70° East 223 257 3,900 -600 Descending FlightAware
11:15PM 49.9670 8.2820 70° East 201 231 3,600 -900 Descending FlightAware
11:15PM 49.9770 8.3250 68° East 200 230 2,900 -1,200 Descending FlightAware
11:15PM 49.9830 8.3480 70° East 189 217 2,600 -840 Descending FlightAware
11:16PM 49.9920 8.3870 68° East 173 199 2,200 -960 Descending FlightAware
11:16PM 49.9980 8.4100 69° East 165 190 1,800 -900 Descending FlightAware
11:17PM 50.0080 8.4510 70° East 142 163 1,300 -480 Descending FlightAware
11:19PM 50.0170 8.4900 75° East 138 159 800 -300 Descending FlightAware
11:27PM 50.2763 10.0139 269° West  Level Estimated
11:28PM 50.2253 7.3934 104° East  Level FlightAware Approximate
11:29PM 50.1938 7.5845 106° East  Level FlightAware Approximate
11:30PM 50.1587 7.7731 106° East  Level FlightAware Approximate
11:31PM 50.1239 7.9618 106° East  Level FlightAware Approximate
11:32PM 50.0888 8.1504 102° East  Level FlightAware Approximate
11:33PM 50.0638 8.3367 107° East  Level FlightAware Approximate
11:34PM 50.0273 8.5243 94° East  Level FlightAware Approximate
11:35PM 50.0182 8.7204 274° West  Level Estimated
11:36PM 50.0273 8.5243 94° East  Level Estimated
11:37PM 50.0182 8.7204 274° West  Level Estimated
11:38PM 50.0273 8.5243 94° East  Level Estimated
11:39PM 50.0182 8.7204 269° West  Level Estimated
11:40PM 50.0167 8.5667 303° West  Level FlightAware Approximate
11:41PM 50.0850 8.4012 123° Southeast  Level Estimated
11:42PM 50.0167 8.5667 303° West  Level FlightAware Approximate
11:43PM 50.0850 8.4012 123° Southeast  Level Estimated
11:44PM 50.0167 8.5667 303° West  Level FlightAware Approximate
11:45PM 50.0850 8.4012 123° Southeast  Level Estimated
11:46PM 50.0167 8.5667 303° West  Level FlightAware Approximate
11:47PM 50.0850 8.4012 123° Southeast  Level Estimated
11:48PM 50.0167 8.5667 303° West  Level FlightAware Approximate
11:49PM 50.0850 8.4012 123° Southeast  Level Estimated
11:50PM 50.0167 8.5667 303° West  Level FlightAware Approximate
11:51PM 50.0850 8.4012 123° Southeast  Level Estimated
11:52PM 50.0167 8.5667 303° West  Level FlightAware Approximate
11:53PM 50.0850 8.4012 123° Southeast  Level Estimated
11:54PM 50.0167 8.5667 303° West  Level FlightAware Approximate
11:55PM 50.0850 8.4012 123° Southeast  Level Estimated
11:56PM 50.0167 8.5667 123° Southeast  Level FlightAware Approximate